sensor_id;sensor_type;location;lat;lon;timestamp;P1;durP1;ratioP1;P2;durP2;ratioP2
71150;SDS011;59071;42.138;24.768;2022-11-21T00:00:29;13.38;;;8.23;;
71150;SDS011;59071;42.138;24.768;2022-11-21T00:02:58;13.57;;;7.72;;
71150;SDS011;59071;42.138;24.768;2022-11-21T00:05:25;16.05;;;7.90;;
71150;SDS011;59071;42.138;24.768;2022-11-21T00:07:54;16.25;;;8.80;;
71150;SDS011;59071;42.138;24.768;2022-11-21T00:10:21;14.70;;;7.72;;
71150;SDS011;59071;42.138;24.768;2022-11-21T00:12:47;14.35;;;8.07;;
71150;SDS011;59071;42.138;24.768;2022-11-21T00:15:16;14.07;;;7.88;;
71150;SDS011;59071;42.138;24.768;2022-11-21T00:17:42;14.68;;;7.80;;
71150;SDS011;59071;42.138;24.768;2022-11-21T00:20:07;14.43;;;7.57;;
71150;SDS011;59071;42.138;24.768;2022-11-21T00:22:33;12.48;;;7.80;;
71150;SDS011;59071;42.138;24.768;2022-11-21T00:24:58;11.45;;;7.97;;
71150;SDS011;59071;42.138;24.768;2022-11-21T00:27:24;12.70;;;7.70;;
71150;SDS011;59071;42.138;24.768;2022-11-21T00:29:49;13.70;;;8.13;;
71150;SDS011;59071;42.138;24.768;2022-11-21T00:32:14;12.57;;;7.88;;
71150;SDS011;59071;42.138;24.768;2022-11-21T00:34:40;11.93;;;7.63;;
71150;SDS011;59071;42.138;24.768;2022-11-21T00:37:05;12.93;;;7.85;;
71150;SDS011;59071;42.138;24.768;2022-11-21T00:39:31;12.88;;;8.25;;
71150;SDS011;59071;42.138;24.768;2022-11-21T00:41:56;15.80;;;8.10;;
71150;SDS011;59071;42.138;24.768;2022-11-21T00:44:22;14.48;;;7.82;;
71150;SDS011;59071;42.138;24.768;2022-11-21T00:46:47;16.05;;;8.65;;
71150;SDS011;59071;42.138;24.768;2022-11-21T00:49:12;12.55;;;7.93;;
71150;SDS011;59071;42.138;24.768;2022-11-21T00:51:38;13.30;;;7.53;;
71150;SDS011;59071;42.138;24.768;2022-11-21T00:54:03;12.93;;;8.18;;
71150;SDS011;59071;42.138;24.768;2022-11-21T00:56:29;11.80;;;7.88;;
71150;SDS011;59071;42.138;24.768;2022-11-21T00:58:54;15.45;;;8.55;;
71150;SDS011;59071;42.138;24.768;2022-11-21T01:01:20;13.75;;;8.05;;
71150;SDS011;59071;42.138;24.768;2022-11-21T01:03:45;12.02;;;7.78;;
71150;SDS011;59071;42.138;24.768;2022-11-21T01:06:12;12.50;;;7.93;;
71150;SDS011;59071;42.138;24.768;2022-11-21T01:08:39;13.23;;;7.50;;
71150;SDS011;59071;42.138;24.768;2022-11-21T01:11:10;11.93;;;7.78;;
71150;SDS011;59071;42.138;24.768;2022-11-21T01:13:39;13.27;;;7.90;;
71150;SDS011;59071;42.138;24.768;2022-11-21T01:16:06;13.82;;;7.82;;
71150;SDS011;59071;42.138;24.768;2022-11-21T01:18:34;11.48;;;7.82;;
71150;SDS011;59071;42.138;24.768;2022-11-21T01:21:00;12.63;;;7.40;;
71150;SDS011;59071;42.138;24.768;2022-11-21T01:23:27;15.43;;;7.90;;
71150;SDS011;59071;42.138;24.768;2022-11-21T01:25:53;15.73;;;7.43;;
71150;SDS011;59071;42.138;24.768;2022-11-21T01:28:18;14.40;;;7.57;;
71150;SDS011;59071;42.138;24.768;2022-11-21T01:30:44;14.82;;;8.20;;
71150;SDS011;59071;42.138;24.768;2022-11-21T01:33:09;13.98;;;8.90;;
71150;SDS011;59071;42.138;24.768;2022-11-21T01:35:35;13.77;;;9.23;;
71150;SDS011;59071;42.138;24.768;2022-11-21T01:38:00;17.75;;;10.45;;
71150;SDS011;59071;42.138;24.768;2022-11-21T01:40:26;15.45;;;9.32;;
71150;SDS011;59071;42.138;24.768;2022-11-21T01:42:52;14.32;;;9.10;;
71150;SDS011;59071;42.138;24.768;2022-11-21T01:48:19;13.50;;;9.48;;
71150;SDS011;59071;42.138;24.768;2022-11-21T01:50:52;16.42;;;9.40;;
71150;SDS011;59071;42.138;24.768;2022-11-21T01:53:19;12.23;;;8.63;;
71150;SDS011;59071;42.138;24.768;2022-11-21T01:55:44;12.10;;;8.77;;
71150;SDS011;59071;42.138;24.768;2022-11-21T01:58:10;13.68;;;9.05;;
71150;SDS011;59071;42.138;24.768;2022-11-21T02:00:37;12.82;;;8.43;;
71150;SDS011;59071;42.138;24.768;2022-11-21T02:03:06;13.15;;;8.80;;
71150;SDS011;59071;42.138;24.768;2022-11-21T02:05:36;16.58;;;8.63;;
71150;SDS011;59071;42.138;24.768;2022-11-21T02:08:05;14.60;;;8.40;;
71150;SDS011;59071;42.138;24.768;2022-11-21T02:10:37;14.88;;;8.02;;
71150;SDS011;59071;42.138;24.768;2022-11-21T02:13:09;11.15;;;7.38;;
71150;SDS011;59071;42.138;24.768;2022-11-21T02:15:35;12.80;;;7.60;;
71150;SDS011;59071;42.138;24.768;2022-11-21T02:18:00;10.82;;;7.30;;
71150;SDS011;59071;42.138;24.768;2022-11-21T02:20:26;12.32;;;7.30;;
71150;SDS011;59071;42.138;24.768;2022-11-21T02:25:33;13.57;;;7.57;;
71150;SDS011;59071;42.138;24.768;2022-11-21T02:28:02;9.82;;;6.90;;
71150;SDS011;59071;42.138;24.768;2022-11-21T02:30:30;12.57;;;7.00;;
71150;SDS011;59071;42.138;24.768;2022-11-21T02:32:57;10.90;;;6.97;;
71150;SDS011;59071;42.138;24.768;2022-11-21T02:35:22;13.07;;;6.82;;
71150;SDS011;59071;42.138;24.768;2022-11-21T02:38:08;12.85;;;7.10;;
71150;SDS011;59071;42.138;24.768;2022-11-21T02:40:39;10.35;;;6.97;;
71150;SDS011;59071;42.138;24.768;2022-11-21T02:45:43;12.18;;;6.50;;
71150;SDS011;59071;42.138;24.768;2022-11-21T02:48:09;17.73;;;7.55;;
71150;SDS011;59071;42.138;24.768;2022-11-21T02:50:38;11.07;;;7.65;;
71150;SDS011;59071;42.138;24.768;2022-11-21T02:53:06;11.55;;;7.10;;
71150;SDS011;59071;42.138;24.768;2022-11-21T02:55:36;9.80;;;6.72;;
71150;SDS011;59071;42.138;24.768;2022-11-21T02:58:02;13.50;;;7.10;;
71150;SDS011;59071;42.138;24.768;2022-11-21T03:00:28;10.40;;;7.15;;
71150;SDS011;59071;42.138;24.768;2022-11-21T03:02:53;11.23;;;7.13;;
71150;SDS011;59071;42.138;24.768;2022-11-21T03:05:20;10.55;;;6.97;;
71150;SDS011;59071;42.138;24.768;2022-11-21T03:07:46;11.23;;;7.53;;
71150;SDS011;59071;42.138;24.768;2022-11-21T03:10:12;11.50;;;7.28;;
71150;SDS011;59071;42.138;24.768;2022-11-21T03:12:38;13.63;;;7.47;;
71150;SDS011;59071;42.138;24.768;2022-11-21T03:15:05;10.95;;;6.82;;
71150;SDS011;59071;42.138;24.768;2022-11-21T03:17:32;13.70;;;8.00;;
71150;SDS011;59071;42.138;24.768;2022-11-21T03:19:58;14.00;;;7.68;;
71150;SDS011;59071;42.138;24.768;2022-11-21T03:22:23;13.63;;;7.90;;
71150;SDS011;59071;42.138;24.768;2022-11-21T03:24:49;13.18;;;8.10;;
71150;SDS011;59071;42.138;24.768;2022-11-21T03:27:14;16.63;;;7.38;;
71150;SDS011;59071;42.138;24.768;2022-11-21T03:29:40;19.45;;;10.30;;
71150;SDS011;59071;42.138;24.768;2022-11-21T03:32:05;15.60;;;8.52;;
71150;SDS011;59071;42.138;24.768;2022-11-21T03:34:31;14.55;;;8.23;;
71150;SDS011;59071;42.138;24.768;2022-11-21T03:36:56;13.80;;;9.32;;
71150;SDS011;59071;42.138;24.768;2022-11-21T03:39:21;17.25;;;10.38;;
71150;SDS011;59071;42.138;24.768;2022-11-21T03:41:47;16.20;;;11.25;;
71150;SDS011;59071;42.138;24.768;2022-11-21T03:44:12;18.00;;;11.15;;
71150;SDS011;59071;42.138;24.768;2022-11-21T03:46:39;18.92;;;11.57;;
71150;SDS011;59071;42.138;24.768;2022-11-21T03:49:06;20.73;;;10.70;;
71150;SDS011;59071;42.138;24.768;2022-11-21T03:51:32;16.33;;;10.35;;
71150;SDS011;59071;42.138;24.768;2022-11-21T03:53:58;21.75;;;10.95;;
71150;SDS011;59071;42.138;24.768;2022-11-21T03:56:24;18.27;;;10.35;;
71150;SDS011;59071;42.138;24.768;2022-11-21T03:58:50;13.82;;;9.93;;
71150;SDS011;59071;42.138;24.768;2022-11-21T04:01:16;15.13;;;10.07;;
71150;SDS011;59071;42.138;24.768;2022-11-21T04:03:42;15.02;;;9.48;;
71150;SDS011;59071;42.138;24.768;2022-11-21T04:06:09;15.32;;;9.27;;
71150;SDS011;59071;42.138;24.768;2022-11-21T04:08:35;15.73;;;9.95;;
71150;SDS011;59071;42.138;24.768;2022-11-21T04:11:01;30.77;;;20.25;;
71150;SDS011;59071;42.138;24.768;2022-11-21T04:13:26;25.02;;;16.23;;
71150;SDS011;59071;42.138;24.768;2022-11-21T04:15:52;33.03;;;21.48;;
71150;SDS011;59071;42.138;24.768;2022-11-21T04:18:17;73.78;;;41.20;;
71150;SDS011;59071;42.138;24.768;2022-11-21T04:20:43;21.88;;;12.82;;
71150;SDS011;59071;42.138;24.768;2022-11-21T04:23:08;19.67;;;12.43;;
71150;SDS011;59071;42.138;24.768;2022-11-21T04:25:34;25.85;;;12.63;;
71150;SDS011;59071;42.138;24.768;2022-11-21T04:28:00;18.55;;;12.15;;
71150;SDS011;59071;42.138;24.768;2022-11-21T04:30:26;21.02;;;12.80;;
71150;SDS011;59071;42.138;24.768;2022-11-21T04:32:53;21.73;;;12.93;;
71150;SDS011;59071;42.138;24.768;2022-11-21T04:35:20;25.08;;;13.50;;
71150;SDS011;59071;42.138;24.768;2022-11-21T04:37:46;24.70;;;12.77;;
71150;SDS011;59071;42.138;24.768;2022-11-21T04:40:12;20.45;;;12.85;;
71150;SDS011;59071;42.138;24.768;2022-11-21T04:42:41;18.73;;;11.68;;
71150;SDS011;59071;42.138;24.768;2022-11-21T04:45:07;22.00;;;15.13;;
71150;SDS011;59071;42.138;24.768;2022-11-21T04:47:37;26.65;;;15.68;;
71150;SDS011;59071;42.138;24.768;2022-11-21T04:50:04;37.88;;;20.48;;
71150;SDS011;59071;42.138;24.768;2022-11-21T04:52:30;22.95;;;13.85;;
71150;SDS011;59071;42.138;24.768;2022-11-21T04:54:55;25.15;;;13.35;;
71150;SDS011;59071;42.138;24.768;2022-11-21T04:57:21;19.88;;;13.32;;
71150;SDS011;59071;42.138;24.768;2022-11-21T04:59:46;23.27;;;13.65;;
71150;SDS011;59071;42.138;24.768;2022-11-21T05:02:12;24.00;;;14.63;;
71150;SDS011;59071;42.138;24.768;2022-11-21T05:04:37;27.40;;;14.45;;
71150;SDS011;59071;42.138;24.768;2022-11-21T05:07:03;22.17;;;13.82;;
71150;SDS011;59071;42.138;24.768;2022-11-21T05:09:29;21.55;;;14.13;;
71150;SDS011;59071;42.138;24.768;2022-11-21T05:11:54;23.90;;;14.25;;
71150;SDS011;59071;42.138;24.768;2022-11-21T05:14:38;31.20;;;14.70;;
71150;SDS011;59071;42.138;24.768;2022-11-21T05:17:03;22.92;;;13.57;;
71150;SDS011;59071;42.138;24.768;2022-11-21T05:19:29;27.45;;;16.95;;
71150;SDS011;59071;42.138;24.768;2022-11-21T05:21:54;30.00;;;16.08;;
71150;SDS011;59071;42.138;24.768;2022-11-21T05:24:20;26.73;;;15.48;;
71150;SDS011;59071;42.138;24.768;2022-11-21T05:26:46;27.25;;;16.45;;
71150;SDS011;59071;42.138;24.768;2022-11-21T05:29:11;23.40;;;14.35;;
71150;SDS011;59071;42.138;24.768;2022-11-21T05:31:37;28.70;;;13.88;;
71150;SDS011;59071;42.138;24.768;2022-11-21T05:34:02;24.42;;;14.75;;
71150;SDS011;59071;42.138;24.768;2022-11-21T05:36:28;19.67;;;13.30;;
71150;SDS011;59071;42.138;24.768;2022-11-21T05:38:53;19.42;;;11.00;;
71150;SDS011;59071;42.138;24.768;2022-11-21T05:41:19;18.58;;;12.40;;
71150;SDS011;59071;42.138;24.768;2022-11-21T05:43:44;18.48;;;11.88;;
71150;SDS011;59071;42.138;24.768;2022-11-21T05:46:10;18.40;;;10.95;;
71150;SDS011;59071;42.138;24.768;2022-11-21T05:48:40;15.57;;;10.80;;
71150;SDS011;59071;42.138;24.768;2022-11-21T05:51:05;20.42;;;10.88;;
71150;SDS011;59071;42.138;24.768;2022-11-21T05:53:32;21.65;;;10.68;;
71150;SDS011;59071;42.138;24.768;2022-11-21T05:56:02;86.57;;;50.35;;
71150;SDS011;59071;42.138;24.768;2022-11-21T05:58:29;21.65;;;12.93;;
71150;SDS011;59071;42.138;24.768;2022-11-21T06:00:55;17.02;;;11.27;;
71150;SDS011;59071;42.138;24.768;2022-11-21T06:03:22;17.73;;;10.43;;
71150;SDS011;59071;42.138;24.768;2022-11-21T06:05:50;18.00;;;10.85;;
71150;SDS011;59071;42.138;24.768;2022-11-21T06:08:16;22.73;;;16.42;;
71150;SDS011;59071;42.138;24.768;2022-11-21T06:10:42;18.52;;;12.18;;
71150;SDS011;59071;42.138;24.768;2022-11-21T06:13:07;15.68;;;10.57;;
71150;SDS011;59071;42.138;24.768;2022-11-21T06:15:51;14.15;;;9.50;;
71150;SDS011;59071;42.138;24.768;2022-11-21T06:18:26;25.88;;;17.65;;
71150;SDS011;59071;42.138;24.768;2022-11-21T06:20:53;19.55;;;10.82;;
71150;SDS011;59071;42.138;24.768;2022-11-21T06:23:18;15.55;;;10.02;;
71150;SDS011;59071;42.138;24.768;2022-11-21T06:25:44;19.00;;;10.05;;
71150;SDS011;59071;42.138;24.768;2022-11-21T06:28:10;22.38;;;10.40;;
71150;SDS011;59071;42.138;24.768;2022-11-21T06:30:36;16.05;;;10.07;;
71150;SDS011;59071;42.138;24.768;2022-11-21T06:33:03;17.35;;;10.15;;
71150;SDS011;59071;42.138;24.768;2022-11-21T06:35:29;19.70;;;12.02;;
71150;SDS011;59071;42.138;24.768;2022-11-21T06:37:56;22.95;;;12.68;;
71150;SDS011;59071;42.138;24.768;2022-11-21T06:40:22;19.48;;;13.93;;
71150;SDS011;59071;42.138;24.768;2022-11-21T06:42:48;17.92;;;12.25;;
71150;SDS011;59071;42.138;24.768;2022-11-21T06:45:13;23.75;;;14.38;;
71150;SDS011;59071;42.138;24.768;2022-11-21T06:47:39;20.02;;;12.73;;
71150;SDS011;59071;42.138;24.768;2022-11-21T06:50:04;19.52;;;11.85;;
71150;SDS011;59071;42.138;24.768;2022-11-21T06:52:33;17.80;;;11.88;;
71150;SDS011;59071;42.138;24.768;2022-11-21T06:54:59;17.38;;;11.70;;
71150;SDS011;59071;42.138;24.768;2022-11-21T06:57:25;20.98;;;12.75;;
71150;SDS011;59071;42.138;24.768;2022-11-21T06:59:50;17.38;;;10.82;;
71150;SDS011;59071;42.138;24.768;2022-11-21T07:02:16;13.15;;;9.02;;
71150;SDS011;59071;42.138;24.768;2022-11-21T07:04:41;15.57;;;8.85;;
71150;SDS011;59071;42.138;24.768;2022-11-21T07:07:06;17.27;;;7.80;;
71150;SDS011;59071;42.138;24.768;2022-11-21T07:09:32;13.40;;;8.55;;
71150;SDS011;59071;42.138;24.768;2022-11-21T07:11:59;13.35;;;8.75;;
71150;SDS011;59071;42.138;24.768;2022-11-21T07:14:46;13.85;;;7.70;;
71150;SDS011;59071;42.138;24.768;2022-11-21T07:17:11;14.55;;;8.18;;
71150;SDS011;59071;42.138;24.768;2022-11-21T07:19:37;13.20;;;8.35;;
71150;SDS011;59071;42.138;24.768;2022-11-21T07:22:03;16.38;;;8.60;;
71150;SDS011;59071;42.138;24.768;2022-11-21T07:24:28;14.75;;;8.70;;
71150;SDS011;59071;42.138;24.768;2022-11-21T07:26:54;14.25;;;8.43;;
71150;SDS011;59071;42.138;24.768;2022-11-21T07:29:19;12.18;;;7.75;;
71150;SDS011;59071;42.138;24.768;2022-11-21T07:31:46;11.45;;;6.70;;
71150;SDS011;59071;42.138;24.768;2022-11-21T07:34:11;12.82;;;6.22;;
71150;SDS011;59071;42.138;24.768;2022-11-21T07:36:37;11.18;;;6.70;;
71150;SDS011;59071;42.138;24.768;2022-11-21T07:39:02;11.38;;;6.82;;
71150;SDS011;59071;42.138;24.768;2022-11-21T07:41:28;14.88;;;6.65;;
71150;SDS011;59071;42.138;24.768;2022-11-21T07:43:53;11.40;;;7.43;;
71150;SDS011;59071;42.138;24.768;2022-11-21T07:46:19;16.25;;;8.60;;
71150;SDS011;59071;42.138;24.768;2022-11-21T07:48:44;14.45;;;8.30;;
71150;SDS011;59071;42.138;24.768;2022-11-21T07:51:10;13.82;;;8.02;;
71150;SDS011;59071;42.138;24.768;2022-11-21T07:53:35;14.30;;;7.75;;
71150;SDS011;59071;42.138;24.768;2022-11-21T07:56:01;12.02;;;7.40;;
71150;SDS011;59071;42.138;24.768;2022-11-21T07:58:26;13.50;;;7.50;;
71150;SDS011;59071;42.138;24.768;2022-11-21T08:00:52;28.05;;;12.88;;
71150;SDS011;59071;42.138;24.768;2022-11-21T08:03:17;34.17;;;16.15;;
71150;SDS011;59071;42.138;24.768;2022-11-21T08:05:43;34.60;;;16.90;;
71150;SDS011;59071;42.138;24.768;2022-11-21T08:08:12;25.50;;;12.70;;
71150;SDS011;59071;42.138;24.768;2022-11-21T08:10:39;17.33;;;9.40;;
71150;SDS011;59071;42.138;24.768;2022-11-21T08:13:08;14.70;;;9.02;;
71150;SDS011;59071;42.138;24.768;2022-11-21T08:15:34;18.85;;;8.10;;
71150;SDS011;59071;42.138;24.768;2022-11-21T08:18:10;14.18;;;7.32;;
71150;SDS011;59071;42.138;24.768;2022-11-21T08:20:37;13.73;;;8.27;;
71150;SDS011;59071;42.138;24.768;2022-11-21T08:23:03;15.68;;;8.00;;
71150;SDS011;59071;42.138;24.768;2022-11-21T08:25:30;16.70;;;7.68;;
71150;SDS011;59071;42.138;24.768;2022-11-21T08:27:56;16.77;;;8.75;;
71150;SDS011;59071;42.138;24.768;2022-11-21T08:30:21;16.52;;;9.30;;
71150;SDS011;59071;42.138;24.768;2022-11-21T08:32:47;15.75;;;8.75;;
71150;SDS011;59071;42.138;24.768;2022-11-21T08:35:12;17.33;;;8.40;;
71150;SDS011;59071;42.138;24.768;2022-11-21T08:37:38;13.85;;;7.63;;
71150;SDS011;59071;42.138;24.768;2022-11-21T08:40:04;14.50;;;6.82;;
71150;SDS011;59071;42.138;24.768;2022-11-21T08:42:29;13.20;;;6.60;;
71150;SDS011;59071;42.138;24.768;2022-11-21T08:44:55;16.85;;;6.97;;
71150;SDS011;59071;42.138;24.768;2022-11-21T08:47:20;21.13;;;10.73;;
71150;SDS011;59071;42.138;24.768;2022-11-21T08:49:46;20.48;;;7.88;;
71150;SDS011;59071;42.138;24.768;2022-11-21T08:52:12;14.73;;;6.38;;
71150;SDS011;59071;42.138;24.768;2022-11-21T08:54:38;8.27;;;4.40;;
71150;SDS011;59071;42.138;24.768;2022-11-21T08:57:03;7.45;;;3.95;;
71150;SDS011;59071;42.138;24.768;2022-11-21T08:59:28;9.20;;;3.65;;
71150;SDS011;59071;42.138;24.768;2022-11-21T09:01:54;7.85;;;3.92;;
71150;SDS011;59071;42.138;24.768;2022-11-21T09:04:19;7.88;;;4.07;;
71150;SDS011;59071;42.138;24.768;2022-11-21T09:06:45;8.60;;;3.72;;
71150;SDS011;59071;42.138;24.768;2022-11-21T09:09:10;8.70;;;3.90;;
71150;SDS011;59071;42.138;24.768;2022-11-21T09:11:36;7.68;;;3.97;;
71150;SDS011;59071;42.138;24.768;2022-11-21T09:14:04;8.52;;;3.53;;
71150;SDS011;59071;42.138;24.768;2022-11-21T09:16:47;7.15;;;3.67;;
71150;SDS011;59071;42.138;24.768;2022-11-21T09:19:31;12.77;;;4.22;;
71150;SDS011;59071;42.138;24.768;2022-11-21T09:21:57;11.32;;;4.25;;
71150;SDS011;59071;42.138;24.768;2022-11-21T09:24:22;16.73;;;4.10;;
71150;SDS011;59071;42.138;24.768;2022-11-21T09:26:47;11.32;;;3.83;;
71150;SDS011;59071;42.138;24.768;2022-11-21T09:29:13;7.32;;;2.47;;
71150;SDS011;59071;42.138;24.768;2022-11-21T09:31:41;5.47;;;2.25;;
71150;SDS011;59071;42.138;24.768;2022-11-21T09:34:07;4.18;;;1.65;;
71150;SDS011;59071;42.138;24.768;2022-11-21T09:36:33;8.52;;;1.95;;
71150;SDS011;59071;42.138;24.768;2022-11-21T09:38:59;3.50;;;1.55;;
71150;SDS011;59071;42.138;24.768;2022-11-21T09:41:38;6.50;;;2.13;;
71150;SDS011;59071;42.138;24.768;2022-11-21T09:47:05;5.78;;;1.70;;
71150;SDS011;59071;42.138;24.768;2022-11-21T09:49:46;4.07;;;1.83;;
71150;SDS011;59071;42.138;24.768;2022-11-21T09:52:16;8.68;;;1.75;;
71150;SDS011;59071;42.138;24.768;2022-11-21T09:54:49;5.28;;;1.65;;
71150;SDS011;59071;42.138;24.768;2022-11-21T09:57:20;6.50;;;1.90;;
71150;SDS011;59071;42.138;24.768;2022-11-21T09:59:48;4.27;;;1.87;;
71150;SDS011;59071;42.138;24.768;2022-11-21T10:02:19;4.55;;;1.25;;
71150;SDS011;59071;42.138;24.768;2022-11-21T10:04:47;3.20;;;1.63;;
71150;SDS011;59071;42.138;24.768;2022-11-21T10:07:16;9.65;;;1.65;;
71150;SDS011;59071;42.138;24.768;2022-11-21T10:25:27;4.03;;;1.23;;
71150;SDS011;59071;42.138;24.768;2022-11-21T10:28:17;3.55;;;1.33;;
71150;SDS011;59071;42.138;24.768;2022-11-21T10:30:52;2.40;;;0.90;;
71150;SDS011;59071;42.138;24.768;2022-11-21T10:33:30;2.95;;;1.20;;
71150;SDS011;59071;42.138;24.768;2022-11-21T10:35:58;2.00;;;1.20;;
71150;SDS011;59071;42.138;24.768;2022-11-21T10:38:27;4.65;;;1.30;;
71150;SDS011;59071;42.138;24.768;2022-11-21T10:41:04;6.50;;;1.55;;
71150;SDS011;59071;42.138;24.768;2022-11-21T10:43:44;7.38;;;1.70;;
71150;SDS011;59071;42.138;24.768;2022-11-21T10:46:39;10.13;;;1.75;;
71150;SDS011;59071;42.138;24.768;2022-11-21T10:49:04;4.75;;;1.40;;
71150;SDS011;59071;42.138;24.768;2022-11-21T10:51:44;3.83;;;1.40;;
71150;SDS011;59071;42.138;24.768;2022-11-21T10:54:16;4.45;;;1.60;;
71150;SDS011;59071;42.138;24.768;2022-11-21T10:57:12;4.57;;;1.60;;
71150;SDS011;59071;42.138;24.768;2022-11-21T10:59:40;5.35;;;1.40;;
71150;SDS011;59071;42.138;24.768;2022-11-21T11:02:21;6.63;;;1.58;;
71150;SDS011;59071;42.138;24.768;2022-11-21T11:04:48;2.83;;;1.42;;
71150;SDS011;59071;42.138;24.768;2022-11-21T11:07:26;3.10;;;1.50;;
71150;SDS011;59071;42.138;24.768;2022-11-21T11:10:13;2.38;;;1.30;;
71150;SDS011;59071;42.138;24.768;2022-11-21T11:12:50;8.35;;;2.20;;
71150;SDS011;59071;42.138;24.768;2022-11-21T11:15:35;6.30;;;2.03;;
71150;SDS011;59071;42.138;24.768;2022-11-21T11:18:03;5.10;;;1.98;;
71150;SDS011;59071;42.138;24.768;2022-11-21T11:22:58;6.03;;;2.00;;
71150;SDS011;59071;42.138;24.768;2022-11-21T11:25:23;5.53;;;1.83;;
71150;SDS011;59071;42.138;24.768;2022-11-21T11:27:49;4.05;;;2.28;;
71150;SDS011;59071;42.138;24.768;2022-11-21T11:30:15;6.22;;;2.20;;
71150;SDS011;59071;42.138;24.768;2022-11-21T11:32:42;4.15;;;1.45;;
71150;SDS011;59071;42.138;24.768;2022-11-21T11:35:20;5.32;;;2.00;;
71150;SDS011;59071;42.138;24.768;2022-11-21T11:37:59;8.77;;;2.25;;
71150;SDS011;59071;42.138;24.768;2022-11-21T11:40:40;5.22;;;2.70;;
71150;SDS011;59071;42.138;24.768;2022-11-21T11:49:40;4.23;;;1.80;;
71150;SDS011;59071;42.138;24.768;2022-11-21T11:52:29;2.80;;;1.30;;
71150;SDS011;59071;42.138;24.768;2022-11-21T11:55:01;3.85;;;2.00;;
71150;SDS011;59071;42.138;24.768;2022-11-21T11:57:31;3.47;;;1.30;;
71150;SDS011;59071;42.138;24.768;2022-11-21T12:00:03;3.30;;;1.38;;
71150;SDS011;59071;42.138;24.768;2022-11-21T12:02:46;3.13;;;1.42;;
71150;SDS011;59071;42.138;24.768;2022-11-21T12:05:24;3.50;;;1.20;;
71150;SDS011;59071;42.138;24.768;2022-11-21T12:08:15;2.25;;;1.23;;
71150;SDS011;59071;42.138;24.768;2022-11-21T12:10:47;4.30;;;1.45;;
71150;SDS011;59071;42.138;24.768;2022-11-21T12:13:36;4.30;;;1.25;;
71150;SDS011;59071;42.138;24.768;2022-11-21T12:16:04;2.33;;;1.52;;
71150;SDS011;59071;42.138;24.768;2022-11-21T12:18:57;4.15;;;1.40;;
71150;SDS011;59071;42.138;24.768;2022-11-21T12:21:28;4.88;;;2.17;;
71150;SDS011;59071;42.138;24.768;2022-11-21T12:23:54;5.40;;;1.98;;
71150;SDS011;59071;42.138;24.768;2022-11-21T12:26:28;4.28;;;2.00;;
71150;SDS011;59071;42.138;24.768;2022-11-21T12:43:19;4.95;;;1.40;;
71150;SDS011;59071;42.138;24.768;2022-11-21T12:45:56;4.35;;;1.52;;
71150;SDS011;59071;42.138;24.768;2022-11-21T13:05:30;1.48;;;1.13;;
71150;SDS011;59071;42.138;24.768;2022-11-21T13:08:09;4.13;;;1.20;;
71150;SDS011;59071;42.138;24.768;2022-11-21T13:10:39;2.17;;;1.67;;
71150;SDS011;59071;42.138;24.768;2022-11-21T13:16:07;3.30;;;1.40;;
71150;SDS011;59071;42.138;24.768;2022-11-21T13:18:41;2.47;;;1.30;;
71150;SDS011;59071;42.138;24.768;2022-11-21T13:24:08;1.55;;;1.20;;
71150;SDS011;59071;42.138;24.768;2022-11-21T13:29:20;1.67;;;1.15;;
71150;SDS011;59071;42.138;24.768;2022-11-21T13:31:46;5.63;;;1.40;;
71150;SDS011;59071;42.138;24.768;2022-11-21T13:36:55;2.35;;;1.50;;
71150;SDS011;59071;42.138;24.768;2022-11-21T13:39:25;2.85;;;1.50;;
71150;SDS011;59071;42.138;24.768;2022-11-21T13:44:43;3.67;;;1.95;;
71150;SDS011;59071;42.138;24.768;2022-11-21T13:50:08;2.35;;;1.83;;
71150;SDS011;59071;42.138;24.768;2022-11-21T13:58:57;3.22;;;2.00;;
71150;SDS011;59071;42.138;24.768;2022-11-21T14:07:29;3.25;;;2.00;;
71150;SDS011;59071;42.138;24.768;2022-11-21T14:12:31;3.17;;;1.90;;
71150;SDS011;59071;42.138;24.768;2022-11-21T14:17:44;4.13;;;1.88;;
71150;SDS011;59071;42.138;24.768;2022-11-21T14:22:54;3.70;;;1.88;;
71150;SDS011;59071;42.138;24.768;2022-11-21T14:25:26;2.58;;;1.77;;
71150;SDS011;59071;42.138;24.768;2022-11-21T14:28:05;2.22;;;1.70;;
71150;SDS011;59071;42.138;24.768;2022-11-21T14:30:36;2.28;;;1.55;;
71150;SDS011;59071;42.138;24.768;2022-11-21T14:35:50;3.28;;;2.17;;
71150;SDS011;59071;42.138;24.768;2022-11-21T14:46:27;2.78;;;1.83;;
71150;SDS011;59071;42.138;24.768;2022-11-21T14:51:48;2.75;;;1.83;;
71150;SDS011;59071;42.138;24.768;2022-11-21T14:54:16;3.30;;;1.85;;
71150;SDS011;59071;42.138;24.768;2022-11-21T14:56:45;3.33;;;2.10;;
71150;SDS011;59071;42.138;24.768;2022-11-21T15:02:12;4.80;;;3.75;;
71150;SDS011;59071;42.138;24.768;2022-11-21T15:04:43;3.05;;;1.90;;
71150;SDS011;59071;42.138;24.768;2022-11-21T15:07:21;3.60;;;1.98;;
71150;SDS011;59071;42.138;24.768;2022-11-21T15:09:48;3.55;;;2.15;;
71150;SDS011;59071;42.138;24.768;2022-11-21T15:12:35;3.40;;;2.50;;
71150;SDS011;59071;42.138;24.768;2022-11-21T15:17:47;3.72;;;2.45;;
71150;SDS011;59071;42.138;24.768;2022-11-21T15:20:18;4.50;;;2.20;;
71150;SDS011;59071;42.138;24.768;2022-11-21T15:22:45;5.20;;;2.13;;
71150;SDS011;59071;42.138;24.768;2022-11-21T15:27:39;2.72;;;1.90;;
71150;SDS011;59071;42.138;24.768;2022-11-21T15:30:14;3.45;;;1.90;;
71150;SDS011;59071;42.138;24.768;2022-11-21T15:35:27;3.53;;;2.13;;
71150;SDS011;59071;42.138;24.768;2022-11-21T15:38:02;6.32;;;2.22;;
71150;SDS011;59071;42.138;24.768;2022-11-21T15:40:37;3.92;;;1.80;;
71150;SDS011;59071;42.138;24.768;2022-11-21T15:43:02;3.00;;;1.88;;
71150;SDS011;59071;42.138;24.768;2022-11-21T15:45:28;3.10;;;2.40;;
71150;SDS011;59071;42.138;24.768;2022-11-21T15:47:53;4.72;;;2.95;;
71150;SDS011;59071;42.138;24.768;2022-11-21T15:50:23;3.70;;;2.40;;
71150;SDS011;59071;42.138;24.768;2022-11-21T15:52:50;2.38;;;1.83;;
71150;SDS011;59071;42.138;24.768;2022-11-21T15:55:34;7.30;;;2.10;;
71150;SDS011;59071;42.138;24.768;2022-11-21T15:58:00;3.20;;;2.20;;
71150;SDS011;59071;42.138;24.768;2022-11-21T16:00:25;3.67;;;2.20;;
71150;SDS011;59071;42.138;24.768;2022-11-21T16:02:50;3.53;;;2.60;;
71150;SDS011;59071;42.138;24.768;2022-11-21T16:05:16;4.65;;;3.53;;
71150;SDS011;59071;42.138;24.768;2022-11-21T16:07:41;3.67;;;2.30;;
71150;SDS011;59071;42.138;24.768;2022-11-21T16:10:07;3.63;;;2.65;;
71150;SDS011;59071;42.138;24.768;2022-11-21T16:12:33;6.63;;;2.22;;
71150;SDS011;59071;42.138;24.768;2022-11-21T16:14:59;3.10;;;2.25;;
71150;SDS011;59071;42.138;24.768;2022-11-21T16:17:24;4.07;;;2.10;;
71150;SDS011;59071;42.138;24.768;2022-11-21T16:19:50;5.65;;;2.40;;
71150;SDS011;59071;42.138;24.768;2022-11-21T16:22:15;3.65;;;2.05;;
71150;SDS011;59071;42.138;24.768;2022-11-21T16:24:41;3.38;;;1.98;;
71150;SDS011;59071;42.138;24.768;2022-11-21T16:27:06;3.13;;;2.25;;
71150;SDS011;59071;42.138;24.768;2022-11-21T16:29:32;3.90;;;2.30;;
71150;SDS011;59071;42.138;24.768;2022-11-21T16:31:57;2.90;;;2.10;;
71150;SDS011;59071;42.138;24.768;2022-11-21T16:34:23;2.95;;;2.40;;
71150;SDS011;59071;42.138;24.768;2022-11-21T16:36:48;3.13;;;2.20;;
71150;SDS011;59071;42.138;24.768;2022-11-21T16:39:13;5.95;;;2.40;;